createdAt,value
2017-05-09T00:00:07.055Z,79.66
2017-05-09T00:01:08.329Z,79.85
2017-05-09T00:02:09.611Z,80.24
2017-05-09T00:03:10.905Z,80.24
2017-05-09T00:04:12.149Z,80.86
2017-05-09T00:05:13.423Z,80.33
2017-05-09T00:06:14.626Z,80.38
2017-05-09T00:07:15.865Z,80.57
2017-05-09T00:08:17.137Z,80.95
2017-05-09T00:09:18.406Z,80.95
2017-05-09T00:10:19.714Z,81.14
2017-05-09T00:11:21.043Z,81.14
2017-05-09T00:12:22.321Z,81.62
2017-05-09T00:13:23.637Z,81.81
2017-05-09T00:14:24.923Z,82.09
2017-05-09T00:15:26.342Z,81.99
2017-05-09T00:16:27.598Z,82.66
2017-05-09T00:17:28.853Z,82.66
2017-05-09T00:18:30.125Z,82.75
2017-05-09T00:19:31.349Z,82.66
2017-05-09T00:20:32.613Z,83.04
2017-05-09T00:21:33.888Z,82.66
2017-05-09T00:22:35.082Z,83.13
2017-05-09T00:23:36.352Z,83.23
2017-05-09T00:24:37.661Z,83.04
2017-05-09T00:25:38.995Z,83.32
2017-05-09T00:26:40.240Z,83.32
2017-05-09T00:27:41.498Z,84.17
2017-05-09T00:28:42.767Z,83.98
2017-05-09T00:29:44.007Z,84.17
2017-05-09T00:30:45.285Z,84.08
2017-05-09T00:31:46.529Z,84.65
2017-05-09T00:32:47.776Z,84.74
2017-05-09T00:33:49.027Z,84.74
2017-05-09T00:34:50.280Z,84.55
2017-05-09T00:35:51.523Z,84.55
2017-05-09T00:36:52.775Z,85.13
2017-05-09T00:37:54.048Z,84.94
2017-05-09T00:38:55.295Z,84.94
2017-05-09T00:39:56.540Z,84.89
2017-05-09T00:40:57.837Z,84.8
2017-05-09T00:41:59.084Z,85.27
2017-05-09T00:43:00.307Z,85.27
2017-05-09T00:44:01.589Z,85.46
2017-05-09T00:45:02.943Z,85.93
2017-05-09T00:46:04.195Z,86.03
2017-05-09T00:47:05.476Z,86.12
2017-05-09T00:48:06.753Z,85.93
2017-05-09T00:49:07.965Z,86.79
2017-05-09T00:50:09.200Z,86.6
2017-05-09T00:51:10.471Z,86.31
2017-05-09T00:52:11.714Z,86.6
2017-05-09T00:53:12.967Z,87.16
2017-05-09T00:54:14.210Z,86.98
2017-05-09T00:55:15.448Z,87.26
2017-05-09T00:56:16.730Z,87.07
2017-05-09T00:57:17.976Z,87.45
2017-05-09T00:58:19.241Z,87.73
2017-05-09T00:59:20.478Z,87.83
2017-05-09T01:00:21.734Z,87.64
2017-05-09T01:01:23.013Z,87.83
2017-05-09T01:02:24.289Z,87.73
2017-05-09T01:03:25.507Z,87.83
2017-05-09T01:04:26.744Z,88.02
2017-05-09T01:05:27.987Z,88.21
2017-05-09T01:06:29.277Z,87.83
2017-05-09T01:07:30.565Z,88.4
2017-05-09T01:08:31.831Z,88.3
2017-05-09T01:09:33.083Z,88.3
2017-05-09T01:10:34.315Z,88.68
2017-05-09T01:11:35.595Z,88.68
2017-05-09T01:12:36.859Z,88.68
2017-05-09T01:13:38.102Z,88.59
2017-05-09T01:14:39.349Z,88.78
2017-05-09T01:15:40.580Z,88.68
2017-05-09T01:16:41.847Z,89.15
2017-05-09T01:17:43.071Z,89.25
2017-05-09T01:18:44.318Z,89.44
2017-05-09T01:19:45.548Z,89.53
2017-05-09T01:20:46.781Z,89.34
2017-05-09T01:21:48.044Z,89.72
2017-05-09T01:22:49.434Z,90.01
2017-05-09T01:23:50.734Z,90.29
2017-05-09T01:24:51.945Z,90.1
2017-05-09T01:25:53.175Z,90.86
2017-05-09T01:26:54.423Z,90.67
2017-05-09T01:27:55.678Z,90.77
2017-05-09T01:28:56.925Z,90.44
2017-05-09T01:29:58.174Z,90.63
2017-05-09T01:30:59.477Z,90.72
2017-05-09T01:32:00.692Z,90.81
2017-05-09T01:33:01.926Z,90.72
2017-05-09T01:34:03.172Z,90.91
2017-05-09T01:35:04.447Z,91.1
2017-05-09T01:36:05.764Z,91.38
2017-05-09T01:37:07.078Z,91.29
2017-05-09T01:38:08.386Z,91.1
2017-05-09T01:39:09.627Z,91.38
2017-05-09T01:40:10.888Z,91.19
2017-05-09T01:41:12.120Z,91.29
2017-05-09T01:42:13.341Z,91.67
2017-05-09T01:43:14.660Z,91.76
2017-05-09T01:44:15.951Z,91.95
2017-05-09T01:45:17.222Z,91.76
2017-05-09T01:46:18.479Z,91.86
2017-05-09T01:47:19.718Z,92.05
2017-05-09T01:48:21.093Z,92.61
2017-05-09T01:49:22.277Z,92.43
2017-05-09T01:50:23.504Z,92.52
2017-05-09T01:51:24.753Z,92.99
2017-05-09T01:52:26.001Z,92.8
2017-05-09T01:53:27.272Z,92.05
2017-05-09T01:54:28.539Z,92.52
2017-05-09T01:55:29.880Z,93.18
2017-05-09T01:56:31.165Z,92.99
2017-05-09T01:57:32.427Z,92.99
2017-05-09T01:58:33.706Z,92.99
2017-05-09T01:59:34.936Z,92.8
2017-05-09T02:00:36.258Z,92.71
2017-05-09T02:01:37.497Z,92.61
2017-05-09T02:02:38.769Z,92.9
2017-05-09T02:03:40.042Z,92.99
2017-05-09T02:04:41.317Z,93.65
2017-05-09T02:05:42.591Z,93.18
2017-05-09T02:06:43.833Z,93.18
2017-05-09T02:07:45.203Z,93.65
2017-05-09T02:08:46.551Z,93.46
2017-05-09T02:09:48.062Z,93.37
2017-05-09T02:10:49.421Z,93.27
2017-05-09T02:11:50.698Z,93.56
2017-05-09T02:12:51.948Z,93.75
2017-05-09T02:13:53.208Z,94.13
2017-05-09T02:14:54.437Z,94.51
2017-05-09T02:15:55.685Z,94.51
2017-05-09T02:16:56.962Z,94.6
2017-05-09T02:17:58.247Z,94.79
2017-05-09T02:18:59.583Z,94.6
2017-05-09T02:20:00.961Z,94.7
2017-05-09T02:21:02.178Z,94.7
2017-05-09T02:22:03.416Z,94.7
2017-05-09T02:23:04.677Z,94.7
2017-05-09T02:24:05.992Z,94.7
2017-05-09T02:25:07.472Z,94.89
2017-05-09T02:26:08.738Z,94.6
2017-05-09T02:27:09.994Z,94.32
2017-05-09T02:28:11.347Z,95.26
2017-05-09T02:29:12.616Z,95.17
2017-05-09T02:30:13.880Z,94.89
2017-05-09T02:31:15.192Z,94.98
2017-05-09T02:32:16.487Z,95.07
2017-05-09T02:33:17.744Z,95.07
2017-05-09T02:34:18.999Z,94.98
2017-05-09T02:35:20.290Z,94.79
2017-05-09T02:36:21.559Z,94.98
2017-05-09T02:37:22.902Z,95.03
2017-05-09T02:38:24.141Z,95.03
2017-05-09T02:39:25.399Z,95.31
2017-05-09T02:40:26.664Z,94.65
2017-05-09T02:41:27.925Z,95.31
2017-05-09T02:42:29.189Z,95.03
2017-05-09T02:43:30.471Z,94.84
2017-05-09T02:44:31.692Z,94.74
2017-05-09T02:45:32.917Z,94.84
2017-05-09T02:46:34.169Z,95.12
2017-05-09T02:47:35.544Z,94.93
2017-05-09T02:48:36.942Z,95.21
2017-05-09T02:49:38.198Z,95.4
2017-05-09T02:50:39.484Z,95.4
2017-05-09T02:51:40.789Z,95.4
2017-05-09T02:52:42.146Z,94.84
2017-05-09T02:53:43.453Z,95.69
2017-05-09T02:54:44.714Z,95.88
2017-05-09T02:55:45.987Z,95.78
2017-05-09T02:56:47.222Z,95.88
2017-05-09T02:57:48.529Z,95.5
2017-05-09T02:58:49.903Z,95.88
2017-05-09T02:59:51.280Z,95.59
2017-05-09T03:00:52.584Z,95.69
2017-05-09T03:01:53.809Z,95.78
2017-05-09T03:02:55.056Z,95.5
2017-05-09T03:03:56.299Z,95.59
2017-05-09T03:04:57.561Z,95.59
2017-05-09T03:05:58.844Z,95.5
2017-05-09T03:07:00.080Z,95.31
2017-05-09T03:08:01.344Z,95.69
2017-05-09T03:09:02.636Z,95.69
2017-05-09T03:10:03.863Z,95.88
2017-05-09T03:11:05.137Z,96.07
2017-05-09T03:12:06.405Z,96.07
2017-05-09T03:13:07.670Z,96.26
2017-05-09T03:14:08.931Z,96.07
2017-05-09T03:15:10.162Z,96.16
2017-05-09T03:16:11.445Z,95.88
2017-05-09T03:17:12.696Z,95.78
2017-05-09T03:18:13.969Z,95.78
2017-05-09T03:19:15.335Z,95.88
2017-05-09T03:20:16.579Z,96.45
2017-05-09T03:21:17.824Z,96.26
2017-05-09T03:22:19.076Z,95.97
2017-05-09T03:23:20.373Z,95.97
2017-05-09T03:24:21.672Z,96.45
2017-05-09T03:25:23.019Z,96.45
2017-05-09T03:26:24.250Z,96.64
2017-05-09T03:27:25.501Z,96.64
2017-05-09T03:28:26.750Z,96.64
2017-05-09T03:29:28.102Z,97.11
2017-05-09T03:30:29.338Z,97.2
2017-05-09T03:31:30.641Z,96.83
2017-05-09T03:32:31.913Z,97.11
2017-05-09T03:33:33.161Z,97.02
2017-05-09T03:34:34.422Z,96.92
2017-05-09T03:35:35.779Z,96.73
2017-05-09T03:36:37.076Z,97.3
2017-05-09T03:37:38.364Z,97.49
2017-05-09T03:38:39.620Z,97.77
2017-05-09T03:39:40.891Z,97.96
2017-05-09T03:40:42.144Z,97.58
2017-05-09T03:41:43.397Z,98.06
2017-05-09T03:42:44.608Z,97.87
2017-05-09T03:43:45.863Z,98.15
2017-05-09T03:44:47.090Z,97.87
2017-05-09T03:45:48.408Z,98.25
2017-05-09T03:46:49.696Z,97.68
2017-05-09T03:47:50.939Z,98.15
2017-05-09T03:48:52.182Z,98.25
2017-05-09T03:49:53.531Z,98.25
2017-05-09T03:50:54.776Z,98.25
2017-05-09T03:51:56.033Z,98.06
2017-05-09T03:52:57.313Z,98.25
2017-05-09T03:53:58.531Z,98.53
2017-05-09T03:54:59.819Z,98.72
2017-05-09T03:56:01.108Z,98.53
2017-05-09T03:57:02.310Z,98.44
2017-05-09T03:58:03.568Z,98.25
2017-05-09T03:59:04.875Z,98.44
2017-05-09T04:00:06.118Z,98.91
2017-05-09T04:01:07.356Z,98.63
2017-05-09T04:02:08.662Z,99.1
2017-05-09T04:03:09.896Z,98.72
2017-05-09T04:04:11.164Z,99.01
2017-05-09T04:05:12.388Z,98.82
2017-05-09T04:06:13.739Z,98.91
2017-05-09T04:07:15.042Z,99.01
2017-05-09T04:08:16.270Z,99.1
2017-05-09T04:09:17.547Z,99.1
2017-05-09T04:10:18.787Z,99.48
2017-05-09T04:11:20.075Z,99.29
2017-05-09T04:12:21.391Z,99.99
2017-05-09T04:13:22.649Z,99.76
2017-05-09T04:14:23.886Z,99.48
2017-05-09T04:15:25.155Z,99.48
2017-05-09T04:16:26.406Z,99.62
2017-05-09T04:17:27.673Z,99.99
2017-05-09T04:18:28.915Z,99.9
2017-05-09T04:19:30.191Z,99.9
2017-05-09T04:20:31.468Z,99.71
2017-05-09T04:21:32.781Z,99.71
2017-05-09T04:22:34.064Z,99.9
2017-05-09T04:23:35.311Z,99.99
2017-05-09T04:24:36.570Z,99.99
2017-05-09T04:25:37.821Z,99.81
2017-05-09T04:26:39.160Z,99.99
2017-05-09T04:27:40.417Z,99.99
2017-05-09T04:28:41.654Z,99.99
2017-05-09T04:29:42.911Z,99.99
2017-05-09T04:30:44.233Z,99.99
2017-05-09T04:31:45.576Z,99.99
2017-05-09T04:32:46.855Z,99.99
2017-05-09T04:33:48.035Z,99.99
2017-05-09T04:34:49.283Z,99.99
2017-05-09T04:35:50.532Z,99.99
2017-05-09T04:36:51.789Z,99.99
2017-05-09T04:37:53.045Z,99.99
2017-05-09T04:38:54.330Z,99.99
2017-05-09T04:39:55.637Z,99.99
2017-05-09T04:40:56.884Z,99.99
2017-05-09T04:41:58.148Z,99.99
2017-05-09T04:42:59.426Z,99.99
2017-05-09T04:44:00.682Z,99.99
2017-05-09T04:45:02.037Z,99.67
2017-05-09T04:46:03.270Z,99.86
2017-05-09T04:47:04.536Z,99.99
2017-05-09T04:48:05.860Z,99.99
2017-05-09T04:49:07.159Z,99.96
2017-05-09T04:50:08.422Z,99.86
2017-05-09T04:51:09.673Z,99.86
2017-05-09T04:52:11.043Z,99.77
2017-05-09T04:53:12.306Z,99.77
2017-05-09T04:54:13.576Z,99.86
2017-05-09T04:55:14.815Z,99.86
2017-05-09T04:56:16.152Z,99.72
2017-05-09T04:57:17.433Z,99.53
2017-05-09T04:58:18.724Z,99.99
2017-05-09T04:59:19.983Z,99.34
2017-05-09T05:00:21.214Z,99.15
2017-05-09T05:01:22.548Z,98.96
2017-05-09T05:02:23.800Z,99.15
2017-05-09T05:03:25.170Z,98.77
2017-05-09T05:04:26.406Z,98.77
2017-05-09T05:05:27.700Z,98.49
2017-05-09T05:06:28.954Z,99.49
2017-05-09T05:07:30.279Z,98.92
2017-05-09T05:08:31.555Z,97.88
2017-05-09T05:09:32.782Z,98.02
2017-05-09T05:10:34.107Z,96.88
2017-05-09T05:11:35.323Z,96.17
2017-05-09T05:12:36.603Z,95.31
2017-05-09T05:13:37.878Z,92.51
2017-05-09T05:14:39.319Z,88.67
2017-05-09T05:15:40.606Z,84.52
2017-05-09T05:16:41.861Z,80.19
2017-05-09T05:17:43.137Z,77.85
2017-05-09T05:18:44.407Z,74.37
2017-05-09T05:19:45.714Z,71.73
2017-05-09T05:20:46.936Z,69.68
2017-05-09T05:21:48.179Z,66.28
2017-05-09T05:22:49.451Z,63.51
2017-05-09T05:23:50.724Z,61.54
2017-05-09T05:24:51.991Z,60.78
2017-05-09T05:25:53.267Z,60.75
2017-05-09T05:26:54.545Z,60.46
2017-05-09T05:27:55.836Z,60.08
2017-05-09T05:28:57.099Z,59.63
2017-05-09T05:29:58.352Z,59.19
2017-05-09T05:30:59.605Z,58.7
2017-05-09T05:32:00.885Z,56.45
2017-05-09T05:33:02.189Z,54.59
2017-05-09T05:34:03.504Z,52.96
2017-05-09T05:35:04.785Z,51.46
2017-05-09T05:36:06.071Z,50.02
2017-05-09T05:37:07.430Z,48.9
2017-05-09T05:38:08.697Z,48.54
2017-05-09T05:39:09.961Z,47.11
2017-05-09T05:40:11.225Z,46.08
2017-05-09T05:41:12.504Z,45.5
2017-05-09T05:42:13.774Z,44.09
2017-05-09T05:43:15.024Z,43.13
2017-05-09T05:44:16.295Z,42.6
2017-05-09T05:45:17.566Z,40
2017-05-09T05:46:18.816Z,40.7
2017-05-09T05:47:20.087Z,39.47
2017-05-09T05:48:21.382Z,38.89
2017-05-09T05:49:22.632Z,37.66
2017-05-09T05:50:23.922Z,37.76
2017-05-09T05:51:25.269Z,36.99
2017-05-09T05:52:26.522Z,36.33
2017-05-09T05:53:27.802Z,36.33
2017-05-09T05:54:29.072Z,35.2
2017-05-09T05:55:30.347Z,34.81
2017-05-09T05:56:31.621Z,34.92
2017-05-09T05:57:32.858Z,34.16
2017-05-09T05:58:34.151Z,33.67
2017-05-09T05:59:35.389Z,33.67
2017-05-09T06:00:36.665Z,33.21
2017-05-09T06:01:38.072Z,32.34
2017-05-09T06:02:39.384Z,32.17
2017-05-09T06:03:40.713Z,30.83
2017-05-09T06:04:41.947Z,30.08
2017-05-09T06:05:43.198Z,29.61
2017-05-09T06:06:44.500Z,28.94
2017-05-09T06:07:45.780Z,28.83
2017-05-09T06:08:47.059Z,29.02
2017-05-09T06:09:48.368Z,28.83
2017-05-09T06:10:49.603Z,28.92
2017-05-09T06:11:50.887Z,28.55
2017-05-09T06:12:52.153Z,27.78
2017-05-09T06:13:53.544Z,27.4
2017-05-09T06:14:54.753Z,27.12
2017-05-09T06:15:56.025Z,27.02
2017-05-09T06:16:57.288Z,25.49
2017-05-09T06:17:58.572Z,25.2
2017-05-09T06:18:59.951Z,24.73
2017-05-09T06:20:01.484Z,24.55
2017-05-09T06:21:02.759Z,23.59
2017-05-09T06:22:04.032Z,23.11
2017-05-09T06:23:05.353Z,23.12
2017-05-09T06:24:06.633Z,22.06
2017-05-09T06:25:07.901Z,21.97
2017-05-09T06:26:09.216Z,22.45
2017-05-09T06:27:10.510Z,22.45
2017-05-09T06:28:11.778Z,21.59
2017-05-09T06:29:13.062Z,21.02
2017-05-09T06:30:14.432Z,20.26
2017-05-09T06:31:15.720Z,20.26
2017-05-09T06:32:17.042Z,19.87
2017-05-09T06:33:18.249Z,19.68
2017-05-09T06:34:19.550Z,19.68
2017-05-09T06:35:20.826Z,18.71
2017-05-09T06:36:22.125Z,18.43
2017-05-09T06:37:23.476Z,18.13
2017-05-09T06:38:24.762Z,18.05
2017-05-09T06:39:26.014Z,17.27
2017-05-09T06:40:27.511Z,17.74
2017-05-09T06:41:28.755Z,17.46
2017-05-09T06:42:30.024Z,16.59
2017-05-09T06:43:31.395Z,15.91
2017-05-09T06:44:32.658Z,15.92
2017-05-09T06:45:33.923Z,16.21
2017-05-09T06:46:35.331Z,16.98
2017-05-09T06:47:36.606Z,16.88
2017-05-09T06:48:37.873Z,16.69
2017-05-09T06:49:39.136Z,16.41
2017-05-09T06:50:40.396Z,15.25
2017-05-09T06:51:41.758Z,14.48
2017-05-09T06:52:43.125Z,13.79
2017-05-09T06:53:44.401Z,14.48
2017-05-09T06:54:45.755Z,14.57
2017-05-09T06:55:47.039Z,14.57
2017-05-09T06:56:48.345Z,15.25
2017-05-09T06:57:49.623Z,15.25
2017-05-09T06:58:50.913Z,15.05
2017-05-09T06:59:52.178Z,14.57
2017-05-09T07:00:53.588Z,13.61
2017-05-09T07:01:54.897Z,13.03
2017-05-09T07:02:56.260Z,13.13
2017-05-09T07:03:57.536Z,12.46
2017-05-09T07:04:58.883Z,11.99
2017-05-09T07:06:00.184Z,10.61
2017-05-09T07:07:01.454Z,10.52
2017-05-09T07:08:02.703Z,11.21
2017-05-09T07:09:04.005Z,10.42
2017-05-09T07:10:05.294Z,9.74
2017-05-09T07:11:06.583Z,8.66
2017-05-09T07:12:07.862Z,9.25
2017-05-09T07:13:09.127Z,10.8
2017-05-09T07:14:10.435Z,11.77
2017-05-09T07:15:11.717Z,11.58
2017-05-09T07:16:13.002Z,10.8
2017-05-09T07:17:14.249Z,10.7
2017-05-09T07:18:15.564Z,10.22
2017-05-09T07:19:16.843Z,8.06
2017-05-09T07:20:18.122Z,8.55
2017-05-09T07:21:19.429Z,8.45
2017-05-09T07:22:20.732Z,9.04
2017-05-09T07:23:22.011Z,8.85
2017-05-09T07:24:23.285Z,7.59
2017-05-09T07:25:24.566Z,7.68
2017-05-09T07:26:25.910Z,7.79
2017-05-09T07:27:27.336Z,7.59
2017-05-09T07:28:28.597Z,7.59
2017-05-09T07:29:30.026Z,7.68
2017-05-09T07:30:31.415Z,8.37
2017-05-09T07:31:32.736Z,8.47
2017-05-09T07:32:34.009Z,7.89
2017-05-09T07:33:35.279Z,7.79
2017-05-09T07:34:36.536Z,7.21
2017-05-09T07:35:37.810Z,7.12
2017-05-09T07:36:39.222Z,7.02
2017-05-09T07:37:40.556Z,7.31
2017-05-09T07:38:41.849Z,6.73
2017-05-09T07:39:43.143Z,6.93
2017-05-09T07:40:44.414Z,6.35
2017-05-09T07:41:45.766Z,5.96
2017-05-09T07:42:47.105Z,5.07
2017-05-09T07:43:48.385Z,5.46
2017-05-09T07:44:49.661Z,5.74
2017-05-09T07:45:50.958Z,6.23
2017-05-09T07:46:52.237Z,6.14
2017-05-09T07:47:53.564Z,6.72
2017-05-09T07:48:54.911Z,6.73
2017-05-09T07:49:56.191Z,5.36
2017-05-09T07:50:57.459Z,5.56
2017-05-09T07:51:58.746Z,5.27
2017-05-09T07:53:00.029Z,4.98
2017-05-09T07:54:01.296Z,4.49
2017-05-09T07:55:02.662Z,4.58
2017-05-09T07:56:03.916Z,4.49
2017-05-09T07:57:05.185Z,3.71
2017-05-09T07:58:06.434Z,3.81
2017-05-09T07:59:07.753Z,3.81
2017-05-09T08:00:09.032Z,3.61
2017-05-09T08:01:10.306Z,3.52
2017-05-09T08:02:11.557Z,3.33
2017-05-09T08:03:12.837Z,3.13
2017-05-09T08:04:14.125Z,3.33
2017-05-09T08:05:15.395Z,3.33
2017-05-09T08:06:16.667Z,3.03
2017-05-09T08:07:17.974Z,2.94
2017-05-09T08:08:19.285Z,2.55
2017-05-09T08:09:20.546Z,2.94
2017-05-09T08:10:21.839Z,2.84
2017-05-09T08:11:23.123Z,2.74
2017-05-09T08:12:24.395Z,2.55
2017-05-09T08:13:25.700Z,2.94
2017-05-09T08:14:26.954Z,2.94
2017-05-09T08:15:28.229Z,2.84
2017-05-09T08:16:29.559Z,3.63
2017-05-09T08:17:30.821Z,3.63
2017-05-09T08:18:32.068Z,3.14
2017-05-09T08:19:33.338Z,4.11
2017-05-09T08:20:34.624Z,3.72
2017-05-09T08:21:35.894Z,3.81
2017-05-09T08:22:37.169Z,3.62
2017-05-09T08:23:38.472Z,3.91
2017-05-09T08:24:39.722Z,3.72
2017-05-09T08:25:41.019Z,3.91
2017-05-09T08:26:42.279Z,3.52
2017-05-09T08:27:43.610Z,3.13
2017-05-09T08:28:44.876Z,3.23
2017-05-09T08:29:46.298Z,2.64
2017-05-09T08:30:47.593Z,3.33
2017-05-09T08:31:48.858Z,2.94
2017-05-09T08:32:50.166Z,3.42
2017-05-09T08:33:51.446Z,3.91
2017-05-09T08:34:52.762Z,3.92
2017-05-09T08:35:54.030Z,3.13
2017-05-09T08:36:55.323Z,3.23
2017-05-09T08:37:56.604Z,3.04
2017-05-09T08:38:57.884Z,3.23
2017-05-09T08:39:59.141Z,2.94
2017-05-09T08:41:00.417Z,2.55
2017-05-09T08:42:01.737Z,2.65
2017-05-09T08:43:02.991Z,2.65
2017-05-09T08:44:04.263Z,2.26
2017-05-09T08:45:05.542Z,1.96
2017-05-09T08:46:06.817Z,1.67
2017-05-09T08:47:08.179Z,2.06
2017-05-09T08:48:09.454Z,2.15
2017-05-09T08:49:10.711Z,2.36
2017-05-09T08:50:12.050Z,2.45
2017-05-09T08:51:13.467Z,2.45
2017-05-09T08:52:14.644Z,2.45
2017-05-09T08:53:15.990Z,2.65
2017-05-09T08:54:17.305Z,2.55
2017-05-09T08:55:18.569Z,2.45
2017-05-09T08:56:19.866Z,2.65
2017-05-09T08:57:21.197Z,2.45
2017-05-09T08:58:22.454Z,3.23
2017-05-09T08:59:23.856Z,3.33
2017-05-09T09:00:25.129Z,2.35
2017-05-09T09:01:26.457Z,3.23
2017-05-09T09:02:27.806Z,3.33
2017-05-09T09:03:29.169Z,3.23
2017-05-09T09:04:30.423Z,2.64
2017-05-09T09:05:31.747Z,3.53
2017-05-09T09:06:33.035Z,3.82
2017-05-09T09:07:34.347Z,3.72
2017-05-09T09:08:35.634Z,4.11
2017-05-09T09:09:36.940Z,3.53
2017-05-09T09:10:38.184Z,2.65
2017-05-09T09:11:39.438Z,2.84
2017-05-09T09:12:40.702Z,2.55
2017-05-09T09:13:42.018Z,2.55
2017-05-09T09:14:43.311Z,2.16
2017-05-09T09:15:44.706Z,2.95
2017-05-09T09:16:45.859Z,1.87
2017-05-09T09:17:47.118Z,1.87
2017-05-09T09:18:48.461Z,1.87
2017-05-09T09:19:49.804Z,1.87
2017-05-09T09:20:51.173Z,1.97
2017-05-09T09:21:52.464Z,1.87
2017-05-09T09:22:53.809Z,1.86
2017-05-09T09:23:55.093Z,1.47
2017-05-09T09:24:56.359Z,1.77
2017-05-09T09:25:57.706Z,1.28
2017-05-09T09:26:58.999Z,1.87
2017-05-09T09:28:00.276Z,1.57
2017-05-09T09:29:01.572Z,2.45
2017-05-09T09:30:02.836Z,1.67
2017-05-09T09:31:04.116Z,1.97
2017-05-09T09:32:05.485Z,2.06
2017-05-09T09:33:06.860Z,1.96
2017-05-09T09:34:08.148Z,3.03
2017-05-09T09:35:09.413Z,2.94
2017-05-09T09:36:10.714Z,2.84
2017-05-09T09:37:12.013Z,3.33
2017-05-09T09:38:13.332Z,3.03
2017-05-09T09:39:14.637Z,3.23
2017-05-09T09:40:15.916Z,3.23
2017-05-09T09:41:17.223Z,3.43
2017-05-09T09:42:18.532Z,3.63
2017-05-09T09:43:19.895Z,3.52
2017-05-09T09:44:21.188Z,4.1
2017-05-09T09:45:22.483Z,4.49
2017-05-09T09:46:23.764Z,5.47
2017-05-09T09:47:25.051Z,4.39
2017-05-09T09:48:26.354Z,4.11
2017-05-09T09:49:27.725Z,4.11
2017-05-09T09:50:29.030Z,3.14
2017-05-09T09:51:30.327Z,2.55
2017-05-09T09:52:31.648Z,2.25
2017-05-09T09:53:32.985Z,2.16
2017-05-09T09:54:34.262Z,1.86
2017-05-09T09:55:35.517Z,2.26
2017-05-09T09:56:36.855Z,1.37
2017-05-09T09:57:38.118Z,0.98
2017-05-09T09:58:39.512Z,1.18
2017-05-09T09:59:40.884Z,1.08
2017-05-09T10:00:42.157Z,0.49
2017-05-09T10:01:43.444Z,0
2017-05-09T10:02:44.731Z,0
2017-05-09T10:03:46.010Z,0
2017-05-09T10:04:47.391Z,0
2017-05-09T10:05:48.657Z,0.59
2017-05-09T10:06:49.949Z,0.78
2017-05-09T10:07:51.268Z,0.49
2017-05-09T10:08:52.553Z,0.59
2017-05-09T10:09:53.902Z,1.17
2017-05-09T10:10:55.155Z,1.27
2017-05-09T10:11:56.444Z,1.86
2017-05-09T10:12:57.741Z,1.95
2017-05-09T10:13:59.051Z,2.06
2017-05-09T10:15:00.319Z,1.57
2017-05-09T10:16:01.732Z,2.35
2017-05-09T10:17:02.978Z,1.86
2017-05-09T10:18:04.269Z,2.35
2017-05-09T10:19:05.523Z,2.15
2017-05-09T10:20:06.780Z,2.15
2017-05-09T10:21:08.072Z,2.45
2017-05-09T10:22:09.418Z,2.64
2017-05-09T10:23:10.682Z,3.23
2017-05-09T10:24:12.333Z,2.64
2017-05-09T10:25:13.641Z,2.64
2017-05-09T10:26:15.034Z,2.15
2017-05-09T10:27:16.196Z,2.64
2017-05-09T10:28:17.473Z,2.74
2017-05-09T10:29:18.736Z,2.84
2017-05-09T10:30:19.998Z,2.45
2017-05-09T10:31:21.539Z,1.86
2017-05-09T10:32:22.806Z,2.94
2017-05-09T10:33:24.063Z,2.36
2017-05-09T10:34:25.342Z,2.25
2017-05-09T10:35:26.623Z,2.15
2017-05-09T10:36:27.892Z,2.84
2017-05-09T10:37:29.153Z,3.61
2017-05-09T10:38:30.461Z,4.2
2017-05-09T10:39:31.728Z,5.16
2017-05-09T10:40:33.025Z,6.13
2017-05-09T10:41:34.385Z,6.81
2017-05-09T10:42:35.762Z,8.06
2017-05-09T10:43:37.072Z,8.54
2017-05-09T10:44:38.349Z,9.12
2017-05-09T10:45:39.652Z,9.79
2017-05-09T10:46:40.912Z,9.78
2017-05-09T10:47:42.227Z,10.75
2017-05-09T10:48:43.632Z,10.45
2017-05-09T10:49:44.881Z,11.12
2017-05-09T10:50:46.138Z,12.19
2017-05-09T10:51:47.411Z,11.22
2017-05-09T10:52:48.678Z,11.22
2017-05-09T10:53:49.959Z,11.79
2017-05-09T10:54:51.288Z,12.08
2017-05-09T10:55:52.557Z,12.37
2017-05-09T10:56:53.843Z,13.72
2017-05-09T10:57:55.140Z,13.24
2017-05-09T10:58:56.374Z,13.23
2017-05-09T10:59:57.712Z,13.04
2017-05-09T11:00:59.003Z,12.45
2017-05-09T11:02:00.270Z,12.36
2017-05-09T11:03:01.503Z,13.03
2017-05-09T11:04:02.779Z,13.12
2017-05-09T11:05:04.065Z,13.6
2017-05-09T11:06:05.434Z,13.7
2017-05-09T11:07:06.689Z,14.08
2017-05-09T11:08:07.973Z,14.56
2017-05-09T11:09:09.223Z,14.75
2017-05-09T11:10:10.502Z,15.12
2017-05-09T11:11:11.803Z,14.74
2017-05-09T11:12:13.198Z,15.32
2017-05-09T11:13:14.458Z,14.73
2017-05-09T11:14:15.715Z,15.21
2017-05-09T11:15:17.018Z,15.69
2017-05-09T11:16:18.304Z,16.27
2017-05-09T11:17:19.616Z,16.56
2017-05-09T11:18:20.899Z,16.56
2017-05-09T11:19:22.176Z,16.85
2017-05-09T11:20:23.417Z,16.37
2017-05-09T11:21:24.704Z,16.75
2017-05-09T11:22:25.948Z,16.94
2017-05-09T11:23:27.238Z,17.62
2017-05-09T11:24:28.490Z,18.01
2017-05-09T11:25:29.753Z,17.91
2017-05-09T11:26:30.998Z,18.01
2017-05-09T11:27:32.249Z,18.88
2017-05-09T11:28:33.872Z,17.91
2017-05-09T11:29:35.130Z,18.1
2017-05-09T11:30:36.416Z,16.56
2017-05-09T11:31:37.715Z,16.65
2017-05-09T11:32:38.963Z,15.88
2017-05-09T11:33:40.255Z,16.46
2017-05-09T11:34:41.671Z,16.85
2017-05-09T11:35:42.899Z,16.94
2017-05-09T11:36:44.156Z,17.23
2017-05-09T11:37:45.420Z,17.51
2017-05-09T11:38:46.688Z,17.32
2017-05-09T11:39:47.945Z,18.08
2017-05-09T11:40:49.327Z,17.7
2017-05-09T11:41:50.575Z,18.48
2017-05-09T11:42:51.827Z,18.48
2017-05-09T11:43:53.097Z,19.34
2017-05-09T11:44:54.463Z,17.8
2017-05-09T11:45:55.932Z,17.51
2017-05-09T11:46:57.243Z,17.9
2017-05-09T11:47:58.526Z,18.48
2017-05-09T11:48:59.787Z,17.99
2017-05-09T11:50:01.092Z,17.98
2017-05-09T11:51:02.359Z,18.18
2017-05-09T11:52:03.703Z,18.76
2017-05-09T11:53:05.013Z,17.8
2017-05-09T11:54:06.283Z,17.51
2017-05-09T11:55:07.565Z,17.98
2017-05-09T11:56:08.864Z,18.56
2017-05-09T11:57:10.263Z,18.95
2017-05-09T11:58:11.638Z,19.43
2017-05-09T11:59:12.870Z,19.24
2017-05-09T12:00:14.144Z,19.24
2017-05-09T12:01:15.439Z,20
2017-05-09T12:02:16.788Z,19.92
2017-05-09T12:03:18.160Z,19.52
2017-05-09T12:04:19.425Z,19.23
2017-05-09T12:05:20.685Z,19.43
2017-05-09T12:06:22.015Z,20
2017-05-09T12:07:23.267Z,20.58
2017-05-09T12:08:24.556Z,20
2017-05-09T12:09:25.805Z,18.95
2017-05-09T12:10:27.056Z,18.27
2017-05-09T12:11:28.319Z,19.23
2017-05-09T12:12:29.594Z,19.23
2017-05-09T12:13:30.874Z,20.18
2017-05-09T12:14:32.129Z,19.42
2017-05-09T12:15:33.432Z,19.8
2017-05-09T12:16:34.693Z,19.03
2017-05-09T12:17:35.962Z,19.62
2017-05-09T12:18:37.257Z,20.1
2017-05-09T12:19:38.568Z,20.2
2017-05-09T12:20:39.934Z,20.77
2017-05-09T12:21:41.186Z,20.77
2017-05-09T12:22:42.441Z,20.48
2017-05-09T12:23:43.694Z,20.5
2017-05-09T12:24:44.967Z,21.15
2017-05-09T12:25:46.243Z,20.57
2017-05-09T12:26:47.493Z,21.15
2017-05-09T12:27:48.742Z,20.28
2017-05-09T12:28:50.026Z,19.8
2017-05-09T12:29:51.324Z,20.95
2017-05-09T12:30:52.626Z,20.95
2017-05-09T12:31:54.033Z,21.05
2017-05-09T12:32:55.263Z,20.86
2017-05-09T12:33:56.532Z,20.47
2017-05-09T12:34:57.775Z,20.76
2017-05-09T12:35:59.071Z,21.53
2017-05-09T12:37:00.405Z,21.34
2017-05-09T12:38:01.677Z,20.38
2017-05-09T12:39:03.019Z,21.15
2017-05-09T12:40:04.207Z,20.38
2017-05-09T12:41:05.494Z,19.13
2017-05-09T12:42:06.773Z,19.13
2017-05-09T12:43:08.029Z,19.51
2017-05-09T12:44:09.323Z,19.51
2017-05-09T12:45:10.593Z,19.03
2017-05-09T12:46:11.960Z,19.8
2017-05-09T12:47:13.298Z,19.51
2017-05-09T12:48:14.558Z,19.51
2017-05-09T12:49:15.860Z,19.13
2017-05-09T12:50:17.169Z,19.03
2017-05-09T12:51:18.396Z,19.13
2017-05-09T12:52:19.657Z,19.7
2017-05-09T12:53:20.932Z,20.08
2017-05-09T12:54:22.185Z,21.04
2017-05-09T12:55:23.652Z,20.94
2017-05-09T12:56:24.855Z,21.03
2017-05-09T12:57:26.099Z,21.99
2017-05-09T12:58:27.380Z,22.28
2017-05-09T12:59:28.634Z,22.38
2017-05-09T13:00:29.909Z,23.43
2017-05-09T13:01:31.139Z,22.77
2017-05-09T13:02:32.451Z,22.95
2017-05-09T13:03:33.783Z,23.24
2017-05-09T13:04:35.081Z,22.76
2017-05-09T13:05:36.344Z,22.38
2017-05-09T13:06:37.721Z,22.85
2017-05-09T13:07:38.975Z,22.95
2017-05-09T13:08:40.314Z,23.33
2017-05-09T13:09:41.551Z,23.14
2017-05-09T13:10:42.801Z,23.14
2017-05-09T13:11:44.150Z,23.62
2017-05-09T13:12:45.559Z,23.52
2017-05-09T13:13:46.801Z,23.32
2017-05-09T13:14:48.140Z,23.99
2017-05-09T13:15:49.471Z,23.52
2017-05-09T13:16:50.669Z,23.32
2017-05-09T13:17:51.928Z,23.42
2017-05-09T13:18:53.275Z,24.09